Time;durP1;ratioP1;P1;durP2;ratioP2;P2;SDS_P1;SDS_P2;PMS_P1;PMS_P2;Temp;Humidity;BMP_temperature;BMP_pressure;BME280_temperature;BME280_humidity;BME280_pressure;Samples;Min_cycle;Max_cycle;Signal;HPM_P1;HPM_P2
2021/08/07 00:00:17;;;;;;;4.50;1.60;;;17.30;99.90;;;;;;5050361;28;20024;-73
2021/08/07 00:02:42;;;;;;;5.03;1.48;;;17.30;99.90;;;;;;5047441;28;20020;-73
2021/08/07 00:05:08;;;;;;;4.65;1.92;;;17.30;99.90;;;;;;5050761;28;20135;-73
2021/08/07 00:07:34;;;;;;;3.95;2.53;;;17.30;99.90;;;;;;5048630;28;20120;-73
2021/08/07 00:10:01;;;;;;;2.13;1.40;;;17.30;99.90;;;;;;5047953;28;20102;-73
2021/08/07 00:12:26;;;;;;;7.68;1.40;;;17.20;99.90;;;;;;5048357;28;20028;-73
2021/08/07 00:14:52;;;;;;;9.80;2.15;;;17.20;99.90;;;;;;5050542;28;20394;-73
2021/08/07 00:17:18;;;;;;;3.10;1.27;;;17.20;99.90;;;;;;5048452;28;20412;-73
2021/08/07 00:19:43;;;;;;;7.68;1.70;;;17.20;99.90;;;;;;5046932;28;20555;-73
2021/08/07 00:22:09;;;;;;;6.03;1.35;;;17.30;99.90;;;;;;5051874;28;20021;-73
2021/08/07 00:24:35;;;;;;;2.55;1.35;;;17.20;99.90;;;;;;5053165;28;20021;-73
2021/08/07 00:27:00;;;;;;;3.75;1.27;;;17.20;99.90;;;;;;5049621;28;20029;-72
2021/08/07 00:29:26;;;;;;;11.23;1.67;;;17.20;99.90;;;;;;5052340;28;20028;-73
2021/08/07 00:31:51;;;;;;;2.58;1.52;;;17.20;99.90;;;;;;5048476;28;20044;-73
2021/08/07 00:34:17;;;;;;;2.88;1.30;;;17.20;99.90;;;;;;5049540;28;20033;-73
2021/08/07 00:36:43;;;;;;;5.50;1.88;;;17.20;99.90;;;;;;5050101;28;20071;-73
2021/08/07 00:39:09;;;;;;;8.38;1.60;;;17.10;99.90;;;;;;5043169;28;20013;-73
2021/08/07 00:41:34;;;;;;;3.97;1.92;;;17.10;99.90;;;;;;5051589;28;20024;-73
2021/08/07 00:44:00;;;;;;;9.05;1.75;;;17.10;99.90;;;;;;5048340;28;20025;-73
2021/08/07 00:46:25;;;;;;;2.80;1.40;;;17.10;99.90;;;;;;5049625;28;20028;-73
2021/08/07 00:48:51;;;;;;;9.55;1.70;;;17.10;99.90;;;;;;5047164;28;20056;-73
2021/08/07 00:51:17;;;;;;;6.47;1.80;;;17.10;99.90;;;;;;5049988;28;20575;-73
2021/08/07 00:53:45;;;;;;;4.38;1.75;;;17.10;99.90;;;;;;5052069;28;20504;-73
2021/08/07 00:56:11;;;;;;;;;;;17.10;99.90;;;;;;5047227;28;20044;-74
2021/08/07 00:58:36;;;;;;;8.95;1.80;;;17.10;99.90;;;;;;5055876;28;19913;-73
2021/08/07 01:01:07;;;;;;;13.05;2.97;;;17.10;99.90;;;;;;5050847;28;20033;-73
2021/08/07 01:03:47;;;;;;;4.72;2.10;;;17.10;99.90;;;;;;5052307;28;20047;-73
2021/08/07 01:06:48;;;;;;;12.32;2.38;;;17.00;99.90;;;;;;5067013;28;20447;-73
2021/08/07 01:09:38;;;;;;;4.22;1.25;;;17.00;99.90;;;;;;5045450;28;20440;-73
2021/08/07 01:12:29;;;;;;;3.63;1.60;;;16.80;99.90;;;;;;5052599;28;20481;-73
2021/08/07 01:14:58;;;;;;;3.53;1.55;;;16.80;99.90;;;;;;5065897;28;20133;-73
2021/08/07 01:17:27;;;;;;;7.32;3.05;;;16.80;99.90;;;;;;5050936;28;20029;-73
2021/08/07 01:20:29;;;;;;;4.72;1.77;;;16.80;99.90;;;;;;5051707;28;20043;-73
2021/08/07 01:23:05;;;;;;;6.43;1.55;;;16.80;99.90;;;;;;5051860;28;20082;-73
2021/08/07 01:25:56;;;;;;;14.65;1.77;;;16.80;99.90;;;;;;5052084;28;20108;-73
2021/08/07 01:28:24;;;;;;;5.35;1.65;;;16.70;99.90;;;;;;5052256;28;20033;-73
2021/08/07 01:30:52;;;;;;;4.47;2.33;;;16.70;99.90;;;;;;5050664;28;20481;-73
2021/08/07 01:33:18;;;;;;;2.83;1.40;;;16.70;99.90;;;;;;5051639;28;20032;-73
2021/08/07 01:35:44;;;;;;;9.35;1.70;;;16.60;99.90;;;;;;5051714;28;20489;-73
2021/08/07 01:38:10;;;;;;;6.60;1.85;;;16.60;99.90;;;;;;5052446;28;20017;-73
2021/08/07 01:40:36;;;;;;;6.50;2.20;;;16.60;99.90;;;;;;5051295;28;20029;-73
2021/08/07 01:43:01;;;;;;;5.47;2.13;;;16.50;99.90;;;;;;5050532;28;20477;-73
2021/08/07 01:45:27;;;;;;;9.88;2.13;;;16.50;99.90;;;;;;5051517;28;20025;-73
2021/08/07 01:48:16;;;;;;;10.20;2.45;;;16.40;99.90;;;;;;5051596;28;20025;-73
2021/08/07 01:50:50;;;;;;;8.80;1.90;;;16.50;99.90;;;;;;5051076;28;20041;-73
2021/08/07 01:53:22;;;;;;;7.78;2.38;;;16.50;99.90;;;;;;5050340;28;20028;-73
2021/08/07 01:55:49;;;;;;;10.82;1.70;;;16.50;99.90;;;;;;5050734;28;20415;-72
2021/08/07 01:58:24;;;;;;;8.80;2.20;;;16.50;99.90;;;;;;5051104;28;20064;-73
2021/08/07 02:00:50;;;;;;;15.52;3.15;;;16.50;99.90;;;;;;5051249;28;20024;-73
2021/08/07 02:03:17;;;;;;;11.45;2.03;;;16.40;99.90;;;;;;5051387;28;20017;-72
2021/08/07 02:05:44;;;;;;;12.13;2.37;;;16.50;99.90;;;;;;5049475;28;20059;-72
2021/08/07 02:08:10;;;;;;;8.83;3.90;;;16.40;99.90;;;;;;5051506;28;20070;-73
2021/08/07 02:10:40;;;;;;;8.38;1.88;;;16.40;99.90;;;;;;5050891;28;20024;-73
2021/08/07 02:13:06;;;;;;;8.88;2.40;;;16.30;99.90;;;;;;5051635;28;20576;-73
2021/08/07 02:15:34;;;;;;;11.85;2.08;;;16.30;99.90;;;;;;5049482;28;20124;-73
2021/08/07 02:18:00;;;;;;;6.65;2.33;;;16.30;99.90;;;;;;5055734;28;20029;-73
2021/08/07 02:20:26;;;;;;;4.63;2.13;;;16.40;99.90;;;;;;5054882;28;20017;-73
2021/08/07 02:22:52;;;;;;;10.05;2.08;;;16.30;99.90;;;;;;5052822;28;20025;-73
2021/08/07 02:25:19;;;;;;;12.80;3.63;;;16.30;99.90;;;;;;5068914;28;20044;-73
2021/08/07 02:27:47;;;;;;;14.68;2.15;;;16.20;99.90;;;;;;5055067;28;20028;-73
2021/08/07 02:30:13;;;;;;;10.70;2.20;;;16.30;99.90;;;;;;5054889;28;20028;-73
2021/08/07 02:32:39;;;;;;;7.88;3.00;;;16.20;99.90;;;;;;5054574;28;20025;-73
2021/08/07 02:35:07;;;;;;;6.55;2.22;;;16.20;99.90;;;;;;5055412;28;20401;-73
2021/08/07 02:37:33;;;;;;;10.80;3.13;;;16.20;99.90;;;;;;5054974;28;20108;-73
2021/08/07 02:40:00;;;;;;;7.78;2.28;;;16.20;99.90;;;;;;5052550;28;20124;-73
2021/08/07 02:42:25;;;;;;;11.67;2.20;;;16.20;99.90;;;;;;5054694;28;20031;-73
2021/08/07 02:44:53;;;;;;;5.97;2.40;;;16.20;99.90;;;;;;5054866;28;20103;-73
2021/08/07 02:47:21;;;;;;;13.32;3.13;;;16.30;99.90;;;;;;5054480;28;20021;-73
2021/08/07 02:49:47;;;;;;;6.15;2.67;;;16.30;99.90;;;;;;5053921;28;20021;-73
2021/08/07 02:52:13;;;;;;;11.10;2.63;;;16.30;99.90;;;;;;5053587;28;20025;-73
2021/08/07 02:54:39;;;;;;;6.55;3.00;;;16.30;99.90;;;;;;5054855;28;20021;-73
2021/08/07 02:57:05;;;;;;;8.55;2.63;;;16.30;99.90;;;;;;5054040;28;20090;-74
2021/08/07 02:59:31;;;;;;;5.40;2.55;;;16.30;99.90;;;;;;5053316;28;20052;-73
2021/08/07 03:01:56;;;;;;;6.55;2.63;;;16.30;99.90;;;;;;5052616;28;20024;-73
2021/08/07 03:04:22;;;;;;;7.20;2.78;;;16.30;99.90;;;;;;5053926;28;20075;-73
2021/08/07 03:06:48;;;;;;;6.13;2.72;;;16.30;99.90;;;;;;5069957;28;20029;-73
2021/08/07 03:09:13;;;;;;;7.15;2.63;;;16.30;99.90;;;;;;5053857;28;20122;-73
2021/08/07 03:11:39;;;;;;;3.83;2.30;;;16.30;99.90;;;;;;5070096;28;20162;-73
2021/08/07 03:14:05;;;;;;;7.32;2.70;;;16.30;99.90;;;;;;5054610;28;20362;-73
2021/08/07 03:16:30;;;;;;;6.63;2.85;;;16.30;99.90;;;;;;5054332;28;20440;-73
2021/08/07 03:18:56;;;;;;;8.20;2.85;;;16.30;99.90;;;;;;5053379;28;20074;-73
2021/08/07 03:21:21;;;;;;;5.75;3.00;;;16.30;99.90;;;;;;5054108;28;20488;-73
2021/08/07 03:23:47;;;;;;;7.38;2.97;;;16.30;99.90;;;;;;5054426;28;20029;-73
2021/08/07 03:26:13;;;;;;;6.20;2.60;;;16.30;99.90;;;;;;5054904;28;20025;-73
2021/08/07 03:28:39;;;;;;;6.47;3.03;;;16.30;99.90;;;;;;5056013;28;20476;-73
2021/08/07 03:31:04;;;;;;;9.32;3.80;;;16.30;99.90;;;;;;5056562;28;20052;-74
2021/08/07 03:33:30;;;;;;;7.68;2.90;;;16.30;99.90;;;;;;5055003;28;20033;-74
2021/08/07 03:35:56;;;;;;;6.97;2.78;;;16.30;99.90;;;;;;5071792;28;20072;-74
2021/08/07 03:38:21;;;;;;;6.22;3.05;;;16.30;99.90;;;;;;5057454;28;20048;-74
2021/08/07 03:40:47;;;;;;;11.75;4.25;;;16.30;99.90;;;;;;5072312;28;20025;-73
2021/08/07 03:43:12;;;;;;;5.22;3.88;;;16.30;99.90;;;;;;5057543;28;20075;-74
2021/08/07 03:45:38;;;;;;;8.48;4.40;;;16.30;99.90;;;;;;5073611;28;20040;-74
2021/08/07 03:48:04;;;;;;;5.28;3.45;;;16.30;99.90;;;;;;5056777;28;20039;-73
2021/08/07 03:50:30;;;;;;;8.52;3.58;;;16.30;99.90;;;;;;5055225;28;20033;-73
2021/08/07 03:52:55;;;;;;;8.52;3.67;;;16.30;99.90;;;;;;5054176;28;20035;-73
2021/08/07 03:55:21;;;;;;;9.48;3.33;;;16.40;99.90;;;;;;5054389;28;20377;-73
2021/08/07 03:57:53;;;;;;;5.70;3.05;;;16.30;99.90;;;;;;5052006;28;20037;-73
2021/08/07 04:00:19;;;;;;;7.13;2.88;;;16.40;99.90;;;;;;5036099;28;20064;-73
2021/08/07 04:02:45;;;;;;;9.57;3.70;;;16.40;99.90;;;;;;5041508;28;20076;-73
2021/08/07 04:05:11;;;;;;;5.63;3.10;;;16.40;99.90;;;;;;5048003;28;20032;-73
2021/08/07 04:07:37;;;;;;;5.78;3.15;;;16.40;99.90;;;;;;5040756;28;20358;-73
2021/08/07 04:10:03;;;;;;;9.52;2.90;;;16.50;99.90;;;;;;5051946;28;20018;-73
2021/08/07 04:12:29;;;;;;;8.15;2.78;;;16.50;99.90;;;;;;5049517;28;20112;-73
2021/08/07 04:14:54;;;;;;;5.35;3.35;;;16.50;99.90;;;;;;5050328;28;20163;-74
2021/08/07 04:17:20;;;;;;;6.75;3.10;;;16.50;99.90;;;;;;5053350;28;20013;-73
2021/08/07 04:19:45;;;;;;;6.72;2.83;;;16.50;99.90;;;;;;5052096;28;20060;-73
2021/08/07 04:22:11;;;;;;;4.65;2.78;;;16.50;99.90;;;;;;5060378;28;20029;-73
2021/08/07 04:24:37;;;;;;;6.72;2.40;;;16.50;99.90;;;;;;5053614;28;20030;-73
2021/08/07 04:27:03;;;;;;;9.98;3.05;;;16.50;99.90;;;;;;5052334;28;20599;-73
2021/08/07 04:29:28;;;;;;;8.55;3.00;;;16.50;99.90;;;;;;5057206;28;20074;-73
2021/08/07 04:31:54;;;;;;;8.43;2.58;;;16.50;99.90;;;;;;5058624;28;20548;-73
2021/08/07 04:34:19;;;;;;;8.38;2.45;;;16.50;99.90;;;;;;5052848;28;20371;-73
2021/08/07 04:36:45;;;;;;;8.60;2.47;;;16.50;99.90;;;;;;5060729;28;20112;-73
2021/08/07 04:39:11;;;;;;;11.30;2.92;;;16.50;99.90;;;;;;5051726;28;20491;-73
2021/08/07 04:41:38;;;;;;;7.65;2.65;;;16.50;99.90;;;;;;5053934;28;20038;-73
2021/08/07 04:44:04;;;;;;;13.02;2.92;;;16.50;99.90;;;;;;5049200;28;20095;-73
2021/08/07 04:46:30;;;;;;;9.85;2.40;;;16.50;99.90;;;;;;5051724;28;20112;-73
2021/08/07 04:48:56;;;;;;;4.65;1.95;;;16.50;99.90;;;;;;5051702;28;20120;-73
2021/08/07 04:51:21;;;;;;;6.28;2.75;;;16.40;99.90;;;;;;5057813;28;20021;-73
2021/08/07 04:53:47;;;;;;;8.90;2.22;;;16.30;99.90;;;;;;5049149;28;20063;-73
2021/08/07 04:56:12;;;;;;;3.40;2.10;;;16.40;99.90;;;;;;5050478;28;20037;-73
2021/08/07 04:58:38;;;;;;;4.45;2.40;;;16.40;99.90;;;;;;5061602;28;20135;-73
2021/08/07 05:01:03;;;;;;;6.78;2.47;;;16.40;99.90;;;;;;5059876;28;20028;-73
2021/08/07 05:03:29;;;;;;;10.18;2.70;;;16.40;99.90;;;;;;5055368;28;20120;-73
2021/08/07 05:05:55;;;;;;;6.07;2.38;;;16.30;99.90;;;;;;5049032;28;20512;-73
2021/08/07 05:08:20;;;;;;;8.27;2.67;;;16.40;99.90;;;;;;5051114;28;20428;-73
2021/08/07 05:10:46;;;;;;;5.53;2.60;;;16.30;99.90;;;;;;5047430;28;20029;-73
2021/08/07 05:13:11;;;;;;;11.90;2.70;;;16.30;99.90;;;;;;5052419;28;20031;-73
2021/08/07 05:15:37;;;;;;;6.50;2.42;;;16.30;99.90;;;;;;5050811;28;20038;-73
2021/08/07 05:18:04;;;;;;;9.77;3.03;;;16.40;99.90;;;;;;5050076;28;20017;-73
2021/08/07 05:20:29;;;;;;;6.93;2.13;;;16.40;99.90;;;;;;5052384;28;20100;-73
2021/08/07 05:22:55;;;;;;;7.07;2.17;;;16.40;99.90;;;;;;5045918;28;20108;-73
2021/08/07 05:25:20;;;;;;;9.20;2.60;;;16.40;99.90;;;;;;5049804;28;20499;-73
2021/08/07 05:27:46;;;;;;;10.20;2.60;;;16.40;99.90;;;;;;5050489;28;20056;-73
2021/08/07 05:30:12;;;;;;;3.45;2.03;;;16.30;99.90;;;;;;5050482;28;20040;-73
2021/08/07 05:32:38;;;;;;;7.35;1.83;;;16.40;99.90;;;;;;5046834;28;20108;-73
2021/08/07 05:35:04;;;;;;;9.88;2.28;;;16.50;99.90;;;;;;5051825;28;20190;-74
2021/08/07 05:37:33;;;;;;;12.07;2.65;;;16.50;99.90;;;;;;5049335;28;20029;-73
2021/08/07 05:39:59;;;;;;;9.35;2.53;;;16.60;99.90;;;;;;5046343;28;20042;-73
2021/08/07 05:42:24;;;;;;;7.38;1.77;;;16.70;99.90;;;;;;5043142;28;20025;-73
2021/08/07 05:44:50;;;;;;;6.47;1.90;;;16.70;99.90;;;;;;5050345;28;20023;-73
2021/08/07 05:47:16;;;;;;;5.50;2.78;;;16.80;99.90;;;;;;5049083;28;20025;-73
2021/08/07 05:49:42;;;;;;;5.05;1.80;;;16.80;99.90;;;;;;5066147;28;20029;-73
2021/08/07 05:52:07;;;;;;;4.25;1.67;;;16.80;99.90;;;;;;5054440;28;20362;-73
2021/08/07 05:54:33;;;;;;;5.05;1.50;;;16.80;99.90;;;;;;5055355;28;20029;-73
2021/08/07 05:56:59;;;;;;;10.85;2.40;;;16.80;99.90;;;;;;5058107;28;20049;-73
2021/08/07 05:59:24;;;;;;;7.55;1.60;;;16.70;99.90;;;;;;5054661;28;20496;-73
2021/08/07 06:01:50;;;;;;;2.88;1.63;;;16.80;99.90;;;;;;5070820;28;20025;-73
2021/08/07 06:04:16;;;;;;;5.85;1.55;;;16.80;99.90;;;;;;5056132;28;20440;-73
2021/08/07 06:06:41;;;;;;;6.00;1.52;;;16.90;99.90;;;;;;5053857;28;20121;-73
2021/08/07 06:09:07;;;;;;;6.88;1.58;;;17.00;99.90;;;;;;5055933;28;20362;-73
2021/08/07 06:11:32;;;;;;;6.57;2.22;;;17.00;99.90;;;;;;5054205;28;20044;-73
2021/08/07 06:13:58;;;;;;;6.85;1.85;;;17.00;99.90;;;;;;5070085;28;20098;-73
2021/08/07 06:16:24;;;;;;;6.78;1.55;;;17.00;99.90;;;;;;5070642;28;20045;-73
2021/08/07 06:18:49;;;;;;;4.07;1.40;;;17.00;99.90;;;;;;5055271;28;20055;-73
2021/08/07 06:21:15;;;;;;;5.97;1.70;;;17.10;99.90;;;;;;5071184;28;20025;-73
2021/08/07 06:23:41;;;;;;;7.93;2.45;;;17.20;99.90;;;;;;5055551;28;20469;-73
2021/08/07 06:26:08;;;;;;;8.65;2.30;;;17.20;99.90;;;;;;5055378;28;20029;-73
2021/08/07 06:28:34;;;;;;;6.55;1.58;;;17.40;99.90;;;;;;5055800;28;20033;-73
2021/08/07 06:30:59;;;;;;;12.15;1.70;;;17.60;99.90;;;;;;5055966;28;20037;-73
2021/08/07 06:33:25;;;;;;;4.45;1.25;;;17.80;99.90;;;;;;5054794;28;20017;-73
2021/08/07 06:35:51;;;;;;;8.40;1.30;;;17.90;99.90;;;;;;5055927;28;20033;-73
2021/08/07 06:38:16;;;;;;;4.97;1.52;;;18.10;99.90;;;;;;5055205;28;20029;-73
2021/08/07 06:40:42;;;;;;;8.80;1.63;;;18.20;99.90;;;;;;5054594;28;20388;-73
2021/08/07 06:43:08;;;;;;;2.97;1.00;;;18.40;99.90;;;;;;5044839;28;20113;-74
2021/08/07 06:45:33;;;;;;;3.25;0.77;;;18.60;99.90;;;;;;5037127;28;20061;-73
2021/08/07 06:47:59;;;;;;;3.58;1.00;;;18.80;99.90;;;;;;5045613;28;20428;-74
2021/08/07 06:50:25;;;;;;;4.95;1.00;;;18.90;99.90;;;;;;5054295;28;20029;-73
2021/08/07 06:52:50;;;;;;;7.03;0.95;;;19.10;99.90;;;;;;5046246;28;20029;-74
2021/08/07 06:55:16;;;;;;;5.05;1.00;;;19.20;99.90;;;;;;5049848;28;20119;-73
2021/08/07 06:57:42;;;;;;;1.90;1.17;;;19.10;99.90;;;;;;5048284;28;20037;-74
2021/08/07 07:00:09;;;;;;;5.55;1.20;;;19.20;99.90;;;;;;5051353;28;20022;-73
2021/08/07 07:02:36;;;;;;;5.65;1.15;;;19.40;99.90;;;;;;5051011;28;20041;-73
2021/08/07 07:05:02;;;;;;;3.20;0.90;;;19.50;99.90;;;;;;5050124;28;20018;-73
2021/08/07 07:07:27;;;;;;;4.00;1.50;;;19.50;99.90;;;;;;5052049;28;20021;-73
2021/08/07 07:09:53;;;;;;;2.65;1.88;;;19.50;99.90;;;;;;5052864;28;20525;-74
2021/08/07 07:12:19;;;;;;;6.18;1.00;;;19.50;99.90;;;;;;5053453;28;20033;-74
2021/08/07 07:14:44;;;;;;;4.57;0.98;;;19.40;99.90;;;;;;5051790;28;20025;-73
2021/08/07 07:17:10;;;;;;;3.00;1.33;;;19.20;99.90;;;;;;5054000;28;20478;-74
2021/08/07 07:19:37;;;;;;;2.30;0.90;;;19.10;99.90;;;;;;5049451;28;20040;-74
2021/08/07 07:22:06;;;;;;;1.75;1.38;;;19.10;99.90;;;;;;5049862;28;20036;-73
2021/08/07 07:24:32;;;;;;;5.82;1.00;;;19.00;99.90;;;;;;5045133;28;20087;-73
2021/08/07 07:26:57;;;;;;;3.30;1.10;;;18.90;99.90;;;;;;5045961;28;20116;-74
2021/08/07 07:29:23;;;;;;;2.72;1.08;;;18.90;99.90;;;;;;5048344;28;20047;-74
2021/08/07 07:31:49;;;;;;;2.22;0.85;;;19.30;99.90;;;;;;5050910;28;20025;-73
2021/08/07 07:34:14;;;;;;;6.00;0.95;;;19.40;99.90;;;;;;5048510;28;20037;-74
2021/08/07 07:36:40;;;;;;;7.00;1.35;;;19.50;99.90;;;;;;5052580;28;20029;-74
2021/08/07 07:39:06;;;;;;;3.25;1.40;;;19.50;99.90;;;;;;5051589;28;20021;-76
2021/08/07 07:41:31;;;;;;;6.05;1.02;;;19.40;99.90;;;;;;5050808;28;20017;-75
2021/08/07 07:43:57;;;;;;;2.63;0.80;;;19.40;99.90;;;;;;5050381;28;20029;-74
2021/08/07 07:46:22;;;;;;;3.42;1.35;;;19.30;99.90;;;;;;5050894;28;20024;-74
2021/08/07 07:48:48;;;;;;;2.47;0.93;;;19.20;99.90;;;;;;5051695;28;20047;-74
2021/08/07 07:51:14;;;;;;;6.82;1.00;;;19.10;99.90;;;;;;5051102;28;20017;-74
2021/08/07 07:53:58;;;;;;;2.22;1.27;;;19.00;99.90;;;;;;5054204;28;20535;-74
2021/08/07 07:56:24;;;;;;;7.82;1.35;;;18.90;99.90;;;;;;5052711;28;20384;-74
2021/08/07 07:58:50;;;;;;;3.28;0.85;;;18.80;99.90;;;;;;5052632;28;20043;-74
2021/08/07 08:01:16;;;;;;;3.00;0.98;;;18.80;99.90;;;;;;5051109;28;20035;-74
2021/08/07 08:03:42;;;;;;;4.85;1.10;;;18.70;99.90;;;;;;5053349;28;20462;-75
2021/08/07 08:06:07;;;;;;;3.90;0.95;;;18.80;99.90;;;;;;5053486;28;20032;-74
2021/08/07 08:08:33;;;;;;;2.30;1.02;;;18.80;99.90;;;;;;5061291;28;20032;-75
2021/08/07 08:10:59;;;;;;;5.05;1.27;;;18.80;99.90;;;;;;5053417;28;20564;-74
2021/08/07 08:13:25;;;;;;;6.60;2.58;;;18.80;99.90;;;;;;5046110;28;20100;-75
2021/08/07 08:15:50;;;;;;;6.40;1.50;;;18.80;99.90;;;;;;5051342;28;20117;-74
2021/08/07 08:18:16;;;;;;;7.18;1.30;;;18.80;99.90;;;;;;5054305;28;20032;-75
2021/08/07 08:20:42;;;;;;;6.35;1.00;;;18.90;99.90;;;;;;5051299;28;20029;-74
2021/08/07 08:23:08;;;;;;;4.78;0.60;;;19.00;99.90;;;;;;5047866;28;20041;-75
2021/08/07 08:25:34;;;;;;;2.47;1.13;;;19.10;99.90;;;;;;5048805;28;20039;-75
2021/08/07 08:27:59;;;;;;;3.58;1.00;;;19.20;99.90;;;;;;5040190;28;20033;-74
2021/08/07 08:30:26;;;;;;;1.70;0.90;;;19.20;99.90;;;;;;5049318;28;20385;-74
2021/08/07 08:32:53;;;;;;;6.27;1.63;;;19.40;99.90;;;;;;5046474;28;20043;-75
2021/08/07 08:35:19;;;;;;;3.03;0.88;;;19.50;99.90;;;;;;5050186;28;20043;-75
2021/08/07 08:37:45;;;;;;;7.60;1.15;;;19.60;99.90;;;;;;5044430;28;20025;-74
2021/08/07 08:40:11;;;;;;;4.05;1.48;;;19.60;99.90;;;;;;5049834;28;20033;-75
2021/08/07 08:42:37;;;;;;;13.07;2.25;;;19.60;99.90;;;;;;5042238;28;20381;-74
2021/08/07 08:45:04;;;;;;;2.85;0.77;;;19.70;99.90;;;;;;5047477;28;20030;-75
2021/08/07 08:47:29;;;;;;;6.90;1.60;;;19.70;99.90;;;;;;5049604;28;20017;-74
2021/08/07 08:49:55;;;;;;;9.63;2.05;;;19.70;99.90;;;;;;5046026;28;20123;-74
2021/08/07 08:52:24;;;;;;;3.90;1.02;;;19.90;99.90;;;;;;5044901;28;20029;-74
2021/08/07 08:54:52;;;;;;;6.20;1.38;;;19.90;99.90;;;;;;5049359;28;20044;-73
2021/08/07 08:57:18;;;;;;;5.18;1.05;;;20.00;99.90;;;;;;5048780;28;20079;-74
2021/08/07 08:59:44;;;;;;;7.90;0.95;;;20.20;99.90;;;;;;5046934;28;20044;-74
2021/08/07 09:02:10;;;;;;;4.22;1.02;;;20.20;99.90;;;;;;5044728;28;20183;-74
2021/08/07 09:04:35;;;;;;;2.88;1.13;;;20.10;99.90;;;;;;5049185;28;20049;-74
2021/08/07 09:07:01;;;;;;;8.65;1.10;;;20.10;99.90;;;;;;5050042;28;20093;-74
2021/08/07 09:09:35;;;;;;;1.55;1.02;;;20.10;99.90;;;;;;5048649;28;20067;-74
2021/08/07 09:12:02;;;;;;;4.03;1.02;;;20.20;99.90;;;;;;5047921;28;20067;-74
2021/08/07 09:14:30;;;;;;;4.70;1.08;;;20.50;99.90;;;;;;5047455;28;20043;-74
2021/08/07 09:17:01;;;;;;;3.60;1.00;;;21.00;99.90;;;;;;5049781;28;20040;-74
2021/08/07 09:19:39;;;;;;;4.78;0.90;;;21.50;99.90;;;;;;5046574;28;20037;-75
2021/08/07 09:22:13;;;;;;;1.90;1.10;;;22.10;99.90;;;;;;5063959;28;20051;-73
2021/08/07 09:25:16;;;;;;;10.93;1.27;;;22.40;99.90;;;;;;5047898;28;20021;-73
2021/08/07 09:27:48;;;;;;;5.78;0.85;;;22.60;99.90;;;;;;5050117;28;20108;-74
2021/08/07 09:30:17;;;;;;;4.55;0.95;;;23.20;99.90;;;;;;5049488;28;20029;-74
2021/08/07 09:32:54;;;;;;;6.03;1.40;;;23.50;99.90;;;;;;5049176;28;20036;-74
2021/08/07 09:35:23;;;;;;;4.28;1.33;;;23.60;99.90;;;;;;5047638;28;20536;-74
2021/08/07 09:38:05;;;;;;;3.45;0.98;;;23.50;99.90;;;;;;5050851;28;20444;-75
2021/08/07 09:40:42;;;;;;;2.83;1.20;;;23.60;99.90;;;;;;5049035;28;20028;-74
2021/08/07 09:43:09;;;;;;;3.78;1.02;;;23.80;99.90;;;;;;5050448;28;20070;-75
2021/08/07 09:45:35;;;;;;;1.50;0.80;;;23.80;99.90;;;;;;5050223;28;20028;-75
2021/08/07 09:48:04;;;;;;;2.60;0.98;;;24.00;99.90;;;;;;5047650;28;20037;-75
2021/08/07 09:50:31;;;;;;;1.67;0.73;;;24.40;99.90;;;;;;5059003;28;20388;-76
2021/08/07 09:52:58;;;;;;;4.20;1.30;;;24.80;99.90;;;;;;5051112;28;20079;-74
2021/08/07 09:55:24;;;;;;;2.15;1.00;;;25.20;99.90;;;;;;5052363;28;20029;-75
2021/08/07 09:58:10;;;;;;;2.63;0.98;;;25.00;99.90;;;;;;5048973;28;20044;-74
2021/08/07 10:00:38;;;;;;;2.80;0.88;;;24.30;99.90;;;;;;5050018;28;20016;-74
2021/08/07 10:03:24;;;;;;;5.35;0.80;;;23.50;99.90;;;;;;5050801;28;20032;-73
2021/08/07 10:05:51;;;;;;;0.80;0.80;;;23.00;99.90;;;;;;5055947;28;20024;-74
2021/08/07 10:08:17;;;;;;;3.42;0.82;;;22.60;99.90;;;;;;5052461;28;20032;-74
2021/08/07 10:10:44;;;;;;;3.97;0.90;;;22.40;99.90;;;;;;5048362;28;20350;-74
2021/08/07 10:13:11;;;;;;;4.80;1.00;;;22.30;99.90;;;;;;5050413;28;20025;-73
2021/08/07 10:15:39;;;;;;;7.85;1.65;;;22.20;99.90;;;;;;5050025;28;20036;-74
2021/08/07 10:18:05;;;;;;;4.70;1.33;;;22.00;99.90;;;;;;5050387;28;20031;-74
2021/08/07 10:20:37;;;;;;;1.42;0.82;;;21.80;99.90;;;;;;5051421;28;20048;-74
2021/08/07 10:23:03;;;;;;;6.85;1.48;;;21.60;99.90;;;;;;5049512;28;20040;-74
2021/08/07 10:25:30;;;;;;;6.38;2.25;;;21.40;99.90;;;;;;5049678;28;20033;-72
2021/08/07 10:27:58;;;;;;;10.07;3.40;;;20.50;99.90;;;;;;5049307;28;20024;-73
2021/08/07 10:30:25;;;;;;;13.45;3.08;;;19.50;99.90;;;;;;5049284;28;20371;-72
2021/08/07 10:32:55;;;;;;;4.95;1.88;;;18.80;99.90;;;;;;5045900;28;20493;-73
2021/08/07 10:35:25;;;;;;;2.80;1.90;;;18.30;99.90;;;;;;5048502;28;20074;-73
2021/08/07 10:37:50;;;;;;;3.45;2.05;;;18.00;99.90;;;;;;5050862;28;20053;-73
2021/08/07 10:40:16;;;;;;;5.20;1.55;;;17.90;99.90;;;;;;5054150;28;20372;-72
2021/08/07 10:42:46;;;;;;;2.58;1.42;;;18.10;99.90;;;;;;5053707;28;20400;-72
2021/08/07 10:45:13;;;;;;;4.85;1.55;;;18.30;99.90;;;;;;5051354;28;20028;-73
2021/08/07 10:47:43;;;;;;;;;;;18.40;99.90;;;;;;5051127;28;20031;-72
2021/08/07 10:50:29;;;;;;;5.97;2.20;;;18.70;99.90;;;;;;5052077;28;19909;-72
2021/08/07 10:52:59;;;;;;;4.60;1.85;;;18.60;99.90;;;;;;5050628;28;20032;-72
2021/08/07 10:55:54;;;;;;;6.07;2.20;;;18.50;99.90;;;;;;5052780;28;20500;-72
2021/08/07 10:58:39;;;;;;;5.82;2.08;;;18.50;99.90;;;;;;5050880;28;20099;-72
2021/08/07 11:01:27;;;;;;;5.90;2.25;;;18.60;99.90;;;;;;5051497;28;20024;-73
2021/08/07 11:04:01;;;;;;;5.90;1.48;;;18.90;99.90;;;;;;5045389;28;20096;-73
2021/08/07 11:06:42;;;;;;;7.38;1.90;;;19.00;99.90;;;;;;5045048;28;20033;-73
2021/08/07 11:09:14;;;;;;;6.47;1.85;;;19.30;99.90;;;;;;5051049;28;20024;-73
2021/08/07 11:11:41;;;;;;;4.65;1.33;;;19.50;99.90;;;;;;5057736;28;20436;-73
2021/08/07 11:14:21;;;;;;;16.97;3.50;;;19.80;99.90;;;;;;5051252;28;20078;-73
2021/08/07 11:17:05;;;;;;;3.05;1.70;;;20.20;99.90;;;;;;5037405;28;20871;-74
2021/08/07 11:19:49;;;;;;;4.60;1.60;;;20.60;99.90;;;;;;5042283;28;20025;-73
2021/08/07 11:22:19;;;;;;;3.70;1.50;;;20.70;99.90;;;;;;5054260;28;20054;-73
2021/08/07 11:25:06;;;;;;;6.97;1.67;;;20.90;99.90;;;;;;5054917;28;20025;-73
2021/08/07 11:27:47;;;;;;;2.70;1.50;;;21.10;99.90;;;;;;5053202;28;20021;-73
2021/08/07 11:30:27;;;;;;;3.45;1.45;;;21.30;99.90;;;;;;5051986;28;20055;-73
2021/08/07 11:32:56;;;;;;;2.70;1.60;;;21.30;99.90;;;;;;5050018;28;20057;-73
2021/08/07 11:35:31;;;;;;;1.92;1.35;;;21.20;99.90;;;;;;5053807;28;20037;-73
2021/08/07 11:38:06;;;;;;;12.77;1.40;;;21.10;99.90;;;;;;5049374;28;20389;-73
2021/08/07 11:40:49;;;;;;;3.72;1.23;;;21.20;99.90;;;;;;5053127;28;20029;-73
2021/08/07 11:43:18;;;;;;;7.00;2.00;;;21.50;99.90;;;;;;5047459;28;20132;-74
2021/08/07 11:46:07;;;;;;;5.63;1.88;;;21.70;99.90;;;;;;5048996;28;20033;-73
2021/08/07 11:48:37;;;;;;;2.45;1.05;;;21.80;99.90;;;;;;5033070;28;20068;-73
2021/08/07 11:51:27;;;;;;;2.88;0.80;;;21.70;99.90;;;;;;5052558;28;20424;-75
2021/08/07 11:53:53;;;;;;;7.43;1.17;;;21.80;99.90;;;;;;5053530;28;20373;-73
2021/08/07 11:56:21;;;;;;;4.25;1.15;;;22.00;99.90;;;;;;5053035;28;20041;-73
2021/08/07 11:58:49;;;;;;;4.82;1.08;;;22.10;99.90;;;;;;5056245;28;20033;-73
2021/08/07 12:01:16;;;;;;;2.72;1.25;;;22.00;99.90;;;;;;5050724;28;20025;-73
2021/08/07 12:03:46;;;;;;;5.15;1.35;;;22.00;99.90;;;;;;5056229;28;20025;-73
2021/08/07 12:06:15;;;;;;;6.45;1.35;;;22.20;99.90;;;;;;5053627;28;20032;-73
2021/08/07 12:08:41;;;;;;;5.13;1.25;;;22.50;99.90;;;;;;5054802;28;20033;-74
2021/08/07 12:11:12;;;;;;;8.13;2.50;;;22.70;99.90;;;;;;5051757;28;20462;-73
2021/08/07 12:13:41;;;;;;;1.65;1.05;;;22.70;99.90;;;;;;5054069;28;20029;-73
2021/08/07 12:16:12;;;;;;;3.63;1.30;;;22.80;99.90;;;;;;5058383;28;20036;-73
2021/08/07 12:18:50;;;;;;;1.70;0.82;;;22.70;99.90;;;;;;5055560;28;20034;-73
2021/08/07 12:21:29;;;;;;;3.33;1.00;;;22.70;99.90;;;;;;5052912;28;20023;-74
2021/08/07 12:24:00;;;;;;;4.55;1.30;;;22.90;99.90;;;;;;5069571;28;20476;-74
2021/08/07 12:26:27;;;;;;;4.53;1.40;;;23.00;99.90;;;;;;5056471;28;20090;-74
2021/08/07 12:29:11;;;;;;;2.15;0.65;;;23.10;99.90;;;;;;5050933;28;20485;-73
2021/08/07 12:31:41;;;;;;;4.18;0.90;;;23.00;99.90;;;;;;5065046;28;20040;-73
2021/08/07 12:34:19;;;;;;;3.08;0.70;;;23.20;99.90;;;;;;5052686;28;20029;-74
2021/08/07 12:37:06;;;;;;;5.00;1.20;;;23.60;99.90;;;;;;5053504;28;20036;-74
2021/08/07 12:39:53;;;;;;;4.97;1.00;;;23.50;99.90;;;;;;5045921;28;20041;-74
2021/08/07 12:42:19;;;;;;;;;;;23.40;99.90;;;;;;5050564;28;20033;-74
2021/08/07 12:45:07;;;;;;;5.93;0.90;;;23.20;99.90;;;;;;5050763;28;19908;-73
2021/08/07 12:47:34;;;;;;;5.18;1.58;;;23.20;99.90;;;;;;5049959;28;20480;-73
2021/08/07 12:50:18;;;;;;;1.00;0.68;;;23.40;99.90;;;;;;5051015;28;20075;-74
2021/08/07 12:52:55;;;;;;;5.72;0.98;;;23.90;99.90;;;;;;5049691;28;20029;-74